sensor_id;sensor_type;location;lat;lon;timestamp;pressure;altitude;pressure_sealevel;temperature;humidity
71716;BME280;59568;52.128;5.434;2024-03-02T00:01:36;99916.84;;;7.19;100.00
71716;BME280;59568;52.128;5.434;2024-03-02T00:04:04;99915.50;;;7.22;100.00
71716;BME280;59568;52.128;5.434;2024-03-02T00:06:34;99918.59;;;7.24;100.00
71716;BME280;59568;52.128;5.434;2024-03-02T00:09:01;99918.59;;;7.24;100.00
71716;BME280;59568;52.128;5.434;2024-03-02T00:11:28;99906.41;;;7.25;100.00
71716;BME280;59568;52.128;5.434;2024-03-02T00:13:55;99911.28;;;7.26;100.00
71716;BME280;59568;52.128;5.434;2024-03-02T00:16:22;99929.69;;;7.30;100.00
71716;BME280;59568;52.128;5.434;2024-03-02T00:18:50;99933.25;;;7.34;100.00
71716;BME280;59568;52.128;5.434;2024-03-02T00:21:18;99941.53;;;7.36;100.00
71716;BME280;59568;52.128;5.434;2024-03-02T00:23:48;99946.19;;;7.39;100.00
71716;BME280;59568;52.128;5.434;2024-03-02T00:26:15;99956.00;;;7.42;100.00
71716;BME280;59568;52.128;5.434;2024-03-02T00:28:42;99963.22;;;7.45;100.00
71716;BME280;59568;52.128;5.434;2024-03-02T00:31:12;99963.22;;;7.45;100.00
71716;BME280;59568;52.128;5.434;2024-03-02T00:33:44;99969.78;;;7.43;100.00
71716;BME280;59568;52.128;5.434;2024-03-02T00:36:14;99975.47;;;7.45;100.00
71716;BME280;59568;52.128;5.434;2024-03-02T00:38:46;99989.72;;;7.47;100.00
71716;BME280;59568;52.128;5.434;2024-03-02T00:41:31;99998.56;;;7.46;100.00
71716;BME280;59568;52.128;5.434;2024-03-02T00:44:00;100005.31;;;7.47;100.00
71716;BME280;59568;52.128;5.434;2024-03-02T00:46:36;100021.94;;;7.46;100.00
71716;BME280;59568;52.128;5.434;2024-03-02T00:49:05;100029.75;;;7.46;100.00
71716;BME280;59568;52.128;5.434;2024-03-02T00:51:33;100029.25;;;7.44;100.00
71716;BME280;59568;52.128;5.434;2024-03-02T00:54:05;100007.47;;;7.40;100.00
71716;BME280;59568;52.128;5.434;2024-03-02T00:56:32;100021.06;;;7.37;100.00
71716;BME280;59568;52.128;5.434;2024-03-02T00:59:02;100028.16;;;7.31;100.00
71716;BME280;59568;52.128;5.434;2024-03-02T01:01:29;100027.19;;;7.27;100.00
71716;BME280;59568;52.128;5.434;2024-03-02T01:03:56;100032.75;;;7.20;100.00
71716;BME280;59568;52.128;5.434;2024-03-02T01:06:23;100040.88;;;7.14;100.00
71716;BME280;59568;52.128;5.434;2024-03-02T01:08:50;100039.66;;;7.06;100.00
71716;BME280;59568;52.128;5.434;2024-03-02T01:11:19;100037.66;;;7.03;100.00
71716;BME280;59568;52.128;5.434;2024-03-02T01:13:50;100035.09;;;6.98;100.00
71716;BME280;59568;52.128;5.434;2024-03-02T01:16:17;100037.22;;;6.96;100.00
71716;BME280;59568;52.128;5.434;2024-03-02T01:18:44;100037.03;;;6.92;100.00
71716;BME280;59568;52.128;5.434;2024-03-02T01:21:11;100028.53;;;6.87;100.00
71716;BME280;59568;52.128;5.434;2024-03-02T01:23:38;100027.53;;;6.83;100.00
71716;BME280;59568;52.128;5.434;2024-03-02T01:26:05;100036.13;;;6.78;100.00
71716;BME280;59568;52.128;5.434;2024-03-02T01:28:32;100041.13;;;6.74;100.00
71716;BME280;59568;52.128;5.434;2024-03-02T01:30:59;100054.94;;;6.70;100.00
71716;BME280;59568;52.128;5.434;2024-03-02T01:33:26;100050.59;;;6.65;100.00
71716;BME280;59568;52.128;5.434;2024-03-02T01:35:53;100049.31;;;6.63;100.00
71716;BME280;59568;52.128;5.434;2024-03-02T01:38:20;100046.25;;;6.60;100.00
71716;BME280;59568;52.128;5.434;2024-03-02T01:40:47;100037.19;;;6.58;100.00
71716;BME280;59568;52.128;5.434;2024-03-02T01:43:14;100054.84;;;6.56;100.00
71716;BME280;59568;52.128;5.434;2024-03-02T01:45:41;100051.75;;;6.54;100.00
71716;BME280;59568;52.128;5.434;2024-03-02T01:48:08;100053.84;;;6.52;100.00
71716;BME280;59568;52.128;5.434;2024-03-02T01:50:35;100061.13;;;6.50;100.00
71716;BME280;59568;52.128;5.434;2024-03-02T01:53:03;100057.00;;;6.49;100.00
71716;BME280;59568;52.128;5.434;2024-03-02T01:55:30;100059.09;;;6.47;100.00
71716;BME280;59568;52.128;5.434;2024-03-02T01:57:58;100061.97;;;6.45;100.00
71716;BME280;59568;52.128;5.434;2024-03-02T02:00:25;100057.06;;;6.44;100.00
71716;BME280;59568;52.128;5.434;2024-03-02T02:02:54;100060.72;;;6.43;100.00
71716;BME280;59568;52.128;5.434;2024-03-02T02:05:22;100058.66;;;6.39;100.00
71716;BME280;59568;52.128;5.434;2024-03-02T02:07:49;100059.72;;;6.38;100.00
71716;BME280;59568;52.128;5.434;2024-03-02T02:10:16;100048.84;;;6.36;100.00
71716;BME280;59568;52.128;5.434;2024-03-02T02:12:43;100060.25;;;6.35;100.00
71716;BME280;59568;52.128;5.434;2024-03-02T02:15:27;100068.59;;;6.32;100.00
71716;BME280;59568;52.128;5.434;2024-03-02T02:17:55;100071.97;;;6.33;100.00
71716;BME280;59568;52.128;5.434;2024-03-02T02:20:23;100069.91;;;6.30;100.00
71716;BME280;59568;52.128;5.434;2024-03-02T02:23:02;100071.72;;;6.29;100.00
71716;BME280;59568;52.128;5.434;2024-03-02T02:25:30;100066.31;;;6.26;100.00
71716;BME280;59568;52.128;5.434;2024-03-02T02:27:57;100069.47;;;6.23;100.00
71716;BME280;59568;52.128;5.434;2024-03-02T02:30:27;100052.41;;;6.16;100.00
71716;BME280;59568;52.128;5.434;2024-03-02T02:32:55;100055.28;;;6.15;100.00
71716;BME280;59568;52.128;5.434;2024-03-02T02:35:22;100059.47;;;6.11;100.00
71716;BME280;59568;52.128;5.434;2024-03-02T02:37:52;100060.03;;;6.08;100.00
71716;BME280;59568;52.128;5.434;2024-03-02T02:40:20;100070.66;;;6.06;100.00
71716;BME280;59568;52.128;5.434;2024-03-02T02:42:47;100076.88;;;6.05;100.00
71716;BME280;59568;52.128;5.434;2024-03-02T02:45:15;100078.22;;;6.03;100.00
71716;BME280;59568;52.128;5.434;2024-03-02T02:47:43;100077.72;;;6.00;100.00
71716;BME280;59568;52.128;5.434;2024-03-02T02:50:11;100078.75;;;5.99;100.00
71716;BME280;59568;52.128;5.434;2024-03-02T02:52:40;100079.03;;;5.98;100.00
71716;BME280;59568;52.128;5.434;2024-03-02T02:55:12;100075.16;;;5.95;100.00
71716;BME280;59568;52.128;5.434;2024-03-02T02:57:40;100072.31;;;5.92;100.00
71716;BME280;59568;52.128;5.434;2024-03-02T03:00:11;100089.16;;;5.89;100.00
71716;BME280;59568;52.128;5.434;2024-03-02T03:02:45;100086.09;;;5.87;100.00
71716;BME280;59568;52.128;5.434;2024-03-02T03:05:14;100081.94;;;5.86;100.00
71716;BME280;59568;52.128;5.434;2024-03-02T03:07:42;100088.16;;;5.85;100.00
71716;BME280;59568;52.128;5.434;2024-03-02T03:10:11;100070.31;;;5.84;100.00
71716;BME280;59568;52.128;5.434;2024-03-02T03:12:38;100083.53;;;5.82;100.00
71716;BME280;59568;52.128;5.434;2024-03-02T03:15:08;100087.47;;;5.79;100.00
71716;BME280;59568;52.128;5.434;2024-03-02T03:17:35;100078.38;;;5.77;100.00
71716;BME280;59568;52.128;5.434;2024-03-02T03:20:04;100081.25;;;5.75;100.00
71716;BME280;59568;52.128;5.434;2024-03-02T03:22:32;100072.19;;;5.73;100.00
71716;BME280;59568;52.128;5.434;2024-03-02T03:24:59;100082.81;;;5.71;100.00
71716;BME280;59568;52.128;5.434;2024-03-02T03:27:27;100089.34;;;5.69;100.00
71716;BME280;59568;52.128;5.434;2024-03-02T03:29:54;100088.31;;;5.65;100.00
71716;BME280;59568;52.128;5.434;2024-03-02T03:32:21;100088.88;;;5.62;100.00
71716;BME280;59568;52.128;5.434;2024-03-02T03:34:49;100093.06;;;5.57;100.00
71716;BME280;59568;52.128;5.434;2024-03-02T03:37:16;100092.06;;;5.53;100.00
71716;BME280;59568;52.128;5.434;2024-03-02T03:39:43;100091.50;;;5.51;100.00
71716;BME280;59568;52.128;5.434;2024-03-02T03:42:10;100095.69;;;5.47;100.00
71716;BME280;59568;52.128;5.434;2024-03-02T03:44:37;100097.78;;;5.45;100.00
71716;BME280;59568;52.128;5.434;2024-03-02T03:47:04;100098.06;;;5.44;100.00
71716;BME280;59568;52.128;5.434;2024-03-02T03:49:31;100099.34;;;5.46;100.00
71716;BME280;59568;52.128;5.434;2024-03-02T03:51:58;100104.25;;;5.48;100.00
71716;BME280;59568;52.128;5.434;2024-03-02T03:54:25;100110.22;;;5.48;100.00
71716;BME280;59568;52.128;5.434;2024-03-02T03:56:52;100114.84;;;5.51;100.00
71716;BME280;59568;52.128;5.434;2024-03-02T03:59:19;100108.63;;;5.52;100.00
71716;BME280;59568;52.128;5.434;2024-03-02T04:01:46;100101.34;;;5.54;100.00
71716;BME280;59568;52.128;5.434;2024-03-02T04:04:13;100092.56;;;5.55;100.00
71716;BME280;59568;52.128;5.434;2024-03-02T04:06:40;100106.00;;;5.57;100.00
71716;BME280;59568;52.128;5.434;2024-03-02T04:09:06;100109.13;;;5.59;100.00
71716;BME280;59568;52.128;5.434;2024-03-02T04:11:33;100101.84;;;5.62;100.00
71716;BME280;59568;52.128;5.434;2024-03-02T04:14:00;100108.56;;;5.63;100.00
71716;BME280;59568;52.128;5.434;2024-03-02T04:16:27;100117.91;;;5.64;100.00
71716;BME280;59568;52.128;5.434;2024-03-02T04:18:55;100123.09;;;5.64;100.00
71716;BME280;59568;52.128;5.434;2024-03-02T04:21:22;100124.63;;;5.65;100.00
71716;BME280;59568;52.128;5.434;2024-03-02T04:23:49;100123.84;;;5.64;100.00
71716;BME280;59568;52.128;5.434;2024-03-02T04:26:16;100125.69;;;5.64;100.00
71716;BME280;59568;52.128;5.434;2024-03-02T04:28:48;100120.19;;;5.65;100.00
71716;BME280;59568;52.128;5.434;2024-03-02T04:31:15;100121.75;;;5.66;100.00
71716;BME280;59568;52.128;5.434;2024-03-02T04:33:43;100117.34;;;5.67;100.00
71716;BME280;59568;52.128;5.434;2024-03-02T04:36:10;100118.91;;;5.68;100.00
71716;BME280;59568;52.128;5.434;2024-03-02T04:38:38;100129.28;;;5.68;100.00
71716;BME280;59568;52.128;5.434;2024-03-02T04:41:06;100132.38;;;5.70;100.00
71716;BME280;59568;52.128;5.434;2024-03-02T04:43:33;100124.59;;;5.70;100.00
71716;BME280;59568;52.128;5.434;2024-03-02T04:46:01;100140.16;;;5.70;100.00
71716;BME280;59568;52.128;5.434;2024-03-02T04:48:28;100139.09;;;5.71;100.00
71716;BME280;59568;52.128;5.434;2024-03-02T04:50:55;100141.69;;;5.71;100.00
71716;BME280;59568;52.128;5.434;2024-03-02T04:53:22;100146.88;;;5.71;100.00
71716;BME280;59568;52.128;5.434;2024-03-02T04:55:49;100146.09;;;5.70;100.00
71716;BME280;59568;52.128;5.434;2024-03-02T04:58:19;100151.03;;;5.72;100.00
71716;BME280;59568;52.128;5.434;2024-03-02T05:00:46;100153.88;;;5.70;100.00
71716;BME280;59568;52.128;5.434;2024-03-02T05:03:13;100149.47;;;5.71;100.00
71716;BME280;59568;52.128;5.434;2024-03-02T05:05:41;100151.03;;;5.72;100.00
71716;BME280;59568;52.128;5.434;2024-03-02T05:08:08;100154.63;;;5.71;100.00
71716;BME280;59568;52.128;5.434;2024-03-02T05:10:35;100151.03;;;5.72;100.00
71716;BME280;59568;52.128;5.434;2024-03-02T05:13:03;100158.00;;;5.71;100.00
71716;BME280;59568;52.128;5.434;2024-03-02T05:15:30;100158.78;;;5.72;100.00
71716;BME280;59568;52.128;5.434;2024-03-02T05:17:57;100161.66;;;5.70;100.00
71716;BME280;59568;52.128;5.434;2024-03-02T05:20:24;100160.88;;;5.70;100.00
71716;BME280;59568;52.128;5.434;2024-03-02T05:22:51;100158.28;;;5.70;100.00
71716;BME280;59568;52.128;5.434;2024-03-02T05:25:18;100156.22;;;5.72;100.00
71716;BME280;59568;52.128;5.434;2024-03-02T05:27:45;100157.22;;;5.71;100.00
71716;BME280;59568;52.128;5.434;2024-03-02T05:30:13;100158.28;;;5.70;100.00
71716;BME280;59568;52.128;5.434;2024-03-02T05:32:40;100154.91;;;5.69;100.00
71716;BME280;59568;52.128;5.434;2024-03-02T05:35:07;100157.50;;;5.69;100.00
71716;BME280;59568;52.128;5.434;2024-03-02T05:37:35;100166.06;;;5.70;100.00
71716;BME280;59568;52.128;5.434;2024-03-02T05:40:02;100154.13;;;5.69;100.00
71716;BME280;59568;52.128;5.434;2024-03-02T05:42:29;100148.94;;;5.69;100.00
71716;BME280;59568;52.128;5.434;2024-03-02T05:44:56;100156.28;;;5.62;100.00
71716;BME280;59568;52.128;5.434;2024-03-02T05:47:23;100156.31;;;5.51;100.00
71716;BME280;59568;52.128;5.434;2024-03-02T05:49:50;100156.88;;;5.43;100.00
71716;BME280;59568;52.128;5.434;2024-03-02T05:52:17;100151.47;;;5.34;100.00
71716;BME280;59568;52.128;5.434;2024-03-02T05:54:43;100152.03;;;5.26;100.00
71716;BME280;59568;52.128;5.434;2024-03-02T05:57:10;100152.28;;;5.25;100.00
71716;BME280;59568;52.128;5.434;2024-03-02T05:59:48;100169.13;;;5.27;100.00
71716;BME280;59568;52.128;5.434;2024-03-02T06:02:15;100163.66;;;5.29;100.00
71716;BME280;59568;52.128;5.434;2024-03-02T06:04:42;100176.09;;;5.32;100.00
71716;BME280;59568;52.128;5.434;2024-03-02T06:07:09;100165.25;;;5.30;100.00
71716;BME280;59568;52.128;5.434;2024-03-02T06:09:36;100177.13;;;5.31;100.00
71716;BME280;59568;52.128;5.434;2024-03-02T06:12:03;100178.97;;;5.30;100.00
71716;BME280;59568;52.128;5.434;2024-03-02T06:14:30;100182.09;;;5.27;100.00
71716;BME280;59568;52.128;5.434;2024-03-02T06:16:57;100186.47;;;5.27;100.00
71716;BME280;59568;52.128;5.434;2024-03-02T06:19:26;100182.59;;;5.24;100.00
71716;BME280;59568;52.128;5.434;2024-03-02T06:21:54;100193.22;;;5.23;100.00
71716;BME280;59568;52.128;5.434;2024-03-02T06:24:21;100191.16;;;5.25;100.00
71716;BME280;59568;52.128;5.434;2024-03-02T06:26:48;100196.06;;;5.21;100.00
71716;BME280;59568;52.128;5.434;2024-03-02T06:29:15;100203.34;;;5.19;100.00
71716;BME280;59568;52.128;5.434;2024-03-02T06:31:42;100206.22;;;5.17;100.00
71716;BME280;59568;52.128;5.434;2024-03-02T06:34:09;100209.31;;;5.14;100.00
71716;BME280;59568;52.128;5.434;2024-03-02T06:36:36;100208.81;;;5.17;100.00
71716;BME280;59568;52.128;5.434;2024-03-02T06:39:03;100210.34;;;5.18;100.00
71716;BME280;59568;52.128;5.434;2024-03-02T06:41:30;100216.53;;;5.23;100.00
71716;BME280;59568;52.128;5.434;2024-03-02T06:43:57;100214.47;;;5.25;100.00
71716;BME280;59568;52.128;5.434;2024-03-02T06:46:27;100216.53;;;5.28;100.00
71716;BME280;59568;52.128;5.434;2024-03-02T06:48:54;100220.16;;;5.32;100.00
71716;BME280;59568;52.128;5.434;2024-03-02T06:51:21;100212.63;;;5.35;100.00
71716;BME280;59568;52.128;5.434;2024-03-02T06:53:48;100221.13;;;5.41;100.00
71716;BME280;59568;52.128;5.434;2024-03-02T06:56:15;100217.47;;;5.47;100.00
71716;BME280;59568;52.128;5.434;2024-03-02T06:58:42;100211.72;;;5.60;100.00
71716;BME280;59568;52.128;5.434;2024-03-02T07:01:09;100214.31;;;5.66;100.00
71716;BME280;59568;52.128;5.434;2024-03-02T07:03:36;100210.91;;;5.70;100.00
71716;BME280;59568;52.128;5.434;2024-03-02T07:06:06;100211.66;;;5.71;100.00
71716;BME280;59568;52.128;5.434;2024-03-02T07:08:33;100214.50;;;5.74;100.00
71716;BME280;59568;52.128;5.434;2024-03-02T07:11:00;100216.03;;;5.80;100.00
71716;BME280;59568;52.128;5.434;2024-03-02T07:13:27;100218.31;;;5.87;100.00
71716;BME280;59568;52.128;5.434;2024-03-02T07:15:54;100216.72;;;5.91;100.00
71716;BME280;59568;52.128;5.434;2024-03-02T07:18:31;100211.50;;;6.02;100.00
71716;BME280;59568;52.128;5.434;2024-03-02T07:20:58;100213.06;;;6.08;100.00
71716;BME280;59568;52.128;5.434;2024-03-02T07:23:27;100211.69;;;6.15;100.00
71716;BME280;59568;52.128;5.434;2024-03-02T07:25:54;100214.50;;;6.24;100.00
71716;BME280;59568;52.128;5.434;2024-03-02T07:28:26;100214.41;;;6.34;100.00
71716;BME280;59568;52.128;5.434;2024-03-02T07:30:59;100216.16;;;6.44;100.00
71716;BME280;59568;52.128;5.434;2024-03-02T07:33:28;100223.56;;;6.56;100.00
71716;BME280;59568;52.128;5.434;2024-03-02T07:35:56;100223.75;;;6.65;100.00
71716;BME280;59568;52.128;5.434;2024-03-02T07:38:23;100228.84;;;6.75;100.00
71716;BME280;59568;52.128;5.434;2024-03-02T07:40:50;100224.91;;;6.83;100.00
71716;BME280;59568;52.128;5.434;2024-03-02T07:43:18;100224.28;;;6.91;100.00
71716;BME280;59568;52.128;5.434;2024-03-02T07:45:46;100236.41;;;7.00;100.00
71716;BME280;59568;52.128;5.434;2024-03-02T07:48:14;100228.53;;;7.06;100.00
71716;BME280;59568;52.128;5.434;2024-03-02T07:50:41;100227.00;;;7.05;100.00
71716;BME280;59568;52.128;5.434;2024-03-02T07:53:10;100239.44;;;7.08;100.00
71716;BME280;59568;52.128;5.434;2024-03-02T07:55:37;100232.69;;;7.07;100.00
71716;BME280;59568;52.128;5.434;2024-03-02T07:58:04;100233.31;;;6.98;100.00
71716;BME280;59568;52.128;5.434;2024-03-02T08:00:31;100246.56;;;6.97;100.00
71716;BME280;59568;52.128;5.434;2024-03-02T08:02:59;100234.63;;;6.96;100.00
71716;BME280;59568;52.128;5.434;2024-03-02T08:05:26;100244.00;;;6.92;100.00
71716;BME280;59568;52.128;5.434;2024-03-02T08:07:54;100253.91;;;6.90;100.00
71716;BME280;59568;52.128;5.434;2024-03-02T08:10:21;100257.06;;;6.87;100.00
71716;BME280;59568;52.128;5.434;2024-03-02T08:12:48;100258.09;;;6.86;100.00
71716;BME280;59568;52.128;5.434;2024-03-02T08:15:15;100263.06;;;6.82;100.00
71716;BME280;59568;52.128;5.434;2024-03-02T08:17:42;100256.59;;;6.79;100.00
71716;BME280;59568;52.128;5.434;2024-03-02T08:20:15;100256.59;;;6.79;100.00
71716;BME280;59568;52.128;5.434;2024-03-02T08:22:43;100256.09;;;6.77;100.00
71716;BME280;59568;52.128;5.434;2024-03-02T08:25:10;100254.25;;;6.78;100.00
71716;BME280;59568;52.128;5.434;2024-03-02T08:27:37;100256.00;;;6.88;100.00
71716;BME280;59568;52.128;5.434;2024-03-02T08:30:06;100252.53;;;6.97;100.00
71716;BME280;59568;52.128;5.434;2024-03-02T08:32:35;100251.13;;;7.10;100.00
71716;BME280;59568;52.128;5.434;2024-03-02T08:35:02;100256.63;;;7.28;100.00
71716;BME280;59568;52.128;5.434;2024-03-02T08:37:29;100254.72;;;7.38;100.00
71716;BME280;59568;52.128;5.434;2024-03-02T08:39:56;100260.81;;;7.48;100.00
71716;BME280;59568;52.128;5.434;2024-03-02T08:42:23;100255.28;;;7.54;100.00
71716;BME280;59568;52.128;5.434;2024-03-02T08:44:51;100254.69;;;7.63;100.00
71716;BME280;59568;52.128;5.434;2024-03-02T08:47:18;100261.69;;;7.62;100.00
71716;BME280;59568;52.128;5.434;2024-03-02T08:49:46;100255.44;;;7.63;100.00
71716;BME280;59568;52.128;5.434;2024-03-02T08:52:13;100256.16;;;7.69;100.00
71716;BME280;59568;52.128;5.434;2024-03-02T08:54:40;100251.16;;;7.72;100.00
71716;BME280;59568;52.128;5.434;2024-03-02T08:57:07;100251.47;;;7.71;100.00
71716;BME280;59568;52.128;5.434;2024-03-02T08:59:34;100247.03;;;7.71;100.00
71716;BME280;59568;52.128;5.434;2024-03-02T09:02:01;100251.38;;;7.76;100.00
71716;BME280;59568;52.128;5.434;2024-03-02T09:04:28;100265.88;;;7.82;100.00
71716;BME280;59568;52.128;5.434;2024-03-02T09:07:00;100257.34;;;7.76;100.00
71716;BME280;59568;52.128;5.434;2024-03-02T09:09:27;100255.53;;;7.77;100.00
71716;BME280;59568;52.128;5.434;2024-03-02T09:11:54;100256.59;;;7.76;100.00
71716;BME280;59568;52.128;5.434;2024-03-02T09:14:24;100247.94;;;7.80;100.00
71716;BME280;59568;52.128;5.434;2024-03-02T09:16:52;100256.16;;;7.88;100.00
71716;BME280;59568;52.128;5.434;2024-03-02T09:19:19;100256.88;;;7.93;100.00
71716;BME280;59568;52.128;5.434;2024-03-02T09:21:46;100252.66;;;7.97;100.00
71716;BME280;59568;52.128;5.434;2024-03-02T09:24:13;100255.19;;;8.03;100.00
71716;BME280;59568;52.128;5.434;2024-03-02T09:26:44;100256.94;;;8.07;100.00
71716;BME280;59568;52.128;5.434;2024-03-02T09:29:11;100253.84;;;8.05;100.00
71716;BME280;59568;52.128;5.434;2024-03-02T09:31:42;100253.28;;;8.08;100.00
71716;BME280;59568;52.128;5.434;2024-03-02T09:34:09;100258.16;;;8.15;100.00
71716;BME280;59568;52.128;5.434;2024-03-02T09:36:36;100262.72;;;8.23;100.00
71716;BME280;59568;52.128;5.434;2024-03-02T09:39:03;100260.72;;;8.34;100.00
71716;BME280;59568;52.128;5.434;2024-03-02T09:41:33;100258.56;;;8.41;100.00
71716;BME280;59568;52.128;5.434;2024-03-02T09:44:00;100260.09;;;8.42;100.00
71716;BME280;59568;52.128;5.434;2024-03-02T09:46:27;100263.47;;;8.43;100.00
71716;BME280;59568;52.128;5.434;2024-03-02T09:48:54;100261.84;;;8.47;100.00
71716;BME280;59568;52.128;5.434;2024-03-02T09:51:22;100272.75;;;8.49;100.00
71716;BME280;59568;52.128;5.434;2024-03-02T09:53:49;100262.25;;;8.54;100.00
71716;BME280;59568;52.128;5.434;2024-03-02T09:56:17;100264.97;;;8.63;100.00
71716;BME280;59568;52.128;5.434;2024-03-02T09:58:45;100268.22;;;8.73;100.00
71716;BME280;59568;52.128;5.434;2024-03-02T10:01:12;100271.41;;;8.84;100.00
71716;BME280;59568;52.128;5.434;2024-03-02T10:03:39;100267.66;;;8.90;100.00
71716;BME280;59568;52.128;5.434;2024-03-02T10:08:48;100270.84;;;9.01;100.00
71716;BME280;59568;52.128;5.434;2024-03-02T10:11:32;100259.25;;;9.07;100.00
71716;BME280;59568;52.128;5.434;2024-03-02T10:14:12;100261.97;;;9.16;100.00
71716;BME280;59568;52.128;5.434;2024-03-02T10:16:41;100265.94;;;9.27;100.00
71716;BME280;59568;52.128;5.434;2024-03-02T10:19:19;100260.63;;;9.32;100.00
71716;BME280;59568;52.128;5.434;2024-03-02T10:21:50;100258.97;;;9.36;100.00
71716;BME280;59568;52.128;5.434;2024-03-02T10:24:19;100266.13;;;9.45;100.00
71716;BME280;59568;52.128;5.434;2024-03-02T10:26:46;100260.97;;;9.53;100.00
71716;BME280;59568;52.128;5.434;2024-03-02T10:29:14;100270.72;;;9.62;100.00
71716;BME280;59568;52.128;5.434;2024-03-02T10:31:43;100268.22;;;9.70;100.00
71716;BME280;59568;52.128;5.434;2024-03-02T10:34:11;100277.78;;;9.75;100.00
71716;BME280;59568;52.128;5.434;2024-03-02T10:36:43;100259.50;;;9.75;100.00
71716;BME280;59568;52.128;5.434;2024-03-02T10:39:10;100246.94;;;9.77;100.00
71716;BME280;59568;52.128;5.434;2024-03-02T10:41:38;100251.84;;;9.92;100.00
71716;BME280;59568;52.128;5.434;2024-03-02T10:44:07;100249.66;;;10.08;100.00
71716;BME280;59568;52.128;5.434;2024-03-02T10:46:36;100248.16;;;10.16;100.00
71716;BME280;59568;52.128;5.434;2024-03-02T10:49:05;100232.38;;;10.21;100.00
71716;BME280;59568;52.128;5.434;2024-03-02T10:51:35;100238.63;;;10.34;100.00
71716;BME280;59568;52.128;5.434;2024-03-02T10:54:05;100232.41;;;10.44;100.00
71716;BME280;59568;52.128;5.434;2024-03-02T10:56:38;100229.06;;;10.52;100.00
71716;BME280;59568;52.128;5.434;2024-03-02T11:01:39;100234.59;;;10.82;100.00
71716;BME280;59568;52.128;5.434;2024-03-02T11:04:08;100226.81;;;10.99;100.00
71716;BME280;59568;52.128;5.434;2024-03-02T11:06:36;100225.16;;;11.03;100.00
71716;BME280;59568;52.128;5.434;2024-03-02T11:09:07;100228.88;;;11.11;100.00
71716;BME280;59568;52.128;5.434;2024-03-02T11:11:40;100244.09;;;11.17;100.00
71716;BME280;59568;52.128;5.434;2024-03-02T11:14:14;100237.19;;;11.13;100.00
71716;BME280;59568;52.128;5.434;2024-03-02T11:16:43;100233.81;;;11.21;100.00
71716;BME280;59568;52.128;5.434;2024-03-02T11:19:14;100239.19;;;11.25;100.00
71716;BME280;59568;52.128;5.434;2024-03-02T11:21:43;100232.00;;;11.39;100.00
71716;BME280;59568;52.128;5.434;2024-03-02T11:26:51;100237.13;;;11.62;100.00
71716;BME280;59568;52.128;5.434;2024-03-02T11:32:16;100229.25;;;11.79;100.00
71716;BME280;59568;52.128;5.434;2024-03-02T11:34:46;100229.13;;;11.84;100.00
71716;BME280;59568;52.128;5.434;2024-03-02T11:37:15;100230.69;;;11.85;100.00
71716;BME280;59568;52.128;5.434;2024-03-02T11:39:44;100221.91;;;11.90;100.00
71716;BME280;59568;52.128;5.434;2024-03-02T11:42:12;100222.22;;;11.97;100.00
71716;BME280;59568;52.128;5.434;2024-03-02T11:44:45;100223.59;;;12.12;100.00
71716;BME280;59568;52.128;5.434;2024-03-02T11:47:14;100208.16;;;12.28;100.00
71716;BME280;59568;52.128;5.434;2024-03-02T11:49:46;100208.63;;;12.30;100.00
71716;BME280;59568;52.128;5.434;2024-03-02T11:52:15;100206.91;;;12.34;100.00
71716;BME280;59568;52.128;5.434;2024-03-02T11:54:46;100209.06;;;12.41;100.00
71716;BME280;59568;52.128;5.434;2024-03-02T11:57:15;100199.31;;;12.50;100.00
71716;BME280;59568;52.128;5.434;2024-03-02T11:59:43;100202.06;;;12.62;100.00
71716;BME280;59568;52.128;5.434;2024-03-02T12:02:20;100203.56;;;12.72;100.00
71716;BME280;59568;52.128;5.434;2024-03-02T12:04:48;100204.13;;;12.77;100.00
71716;BME280;59568;52.128;5.434;2024-03-02T12:07:19;100195.50;;;12.77;100.00
71716;BME280;59568;52.128;5.434;2024-03-02T12:10:00;100189.75;;;12.84;100.00
71716;BME280;59568;52.128;5.434;2024-03-02T12:12:30;100187.88;;;12.93;100.00
71716;BME280;59568;52.128;5.434;2024-03-02T12:14:57;100181.38;;;12.99;100.00
71716;BME280;59568;52.128;5.434;2024-03-02T12:17:27;100177.75;;;13.12;100.00
71716;BME280;59568;52.128;5.434;2024-03-02T12:19:54;100177.09;;;13.15;100.00
71716;BME280;59568;52.128;5.434;2024-03-02T12:22:21;100177.44;;;13.14;100.00
71716;BME280;59568;52.128;5.434;2024-03-02T12:24:49;100172.31;;;13.17;100.00
71716;BME280;59568;52.128;5.434;2024-03-02T12:27:16;100183.75;;;13.13;100.00
71716;BME280;59568;52.128;5.434;2024-03-02T12:29:45;100171.69;;;13.21;100.00
71716;BME280;59568;52.128;5.434;2024-03-02T12:32:12;100173.47;;;13.29;100.00
71716;BME280;59568;52.128;5.434;2024-03-02T12:34:39;100170.84;;;13.29;100.00
71716;BME280;59568;52.128;5.434;2024-03-02T12:37:06;100171.69;;;13.21;100.00
71716;BME280;59568;52.128;5.434;2024-03-02T12:39:33;100170.34;;;13.14;100.00
71716;BME280;59568;52.128;5.434;2024-03-02T12:42:02;100172.81;;;13.11;100.00
71716;BME280;59568;52.128;5.434;2024-03-02T12:44:29;100164.50;;;13.09;100.00
71716;BME280;59568;52.128;5.434;2024-03-02T12:46:56;100156.19;;;13.07;100.00
71716;BME280;59568;52.128;5.434;2024-03-02T12:49:27;100155.81;;;13.17;100.00
71716;BME280;59568;52.128;5.434;2024-03-02T12:51:55;100149.84;;;13.08;100.00
71716;BME280;59568;52.128;5.434;2024-03-02T12:54:25;100145.75;;;12.98;100.00
71716;BME280;59568;52.128;5.434;2024-03-02T12:56:53;100143.00;;;12.94;100.00
71716;BME280;59568;52.128;5.434;2024-03-02T12:59:24;100139.16;;;12.92;100.00
71716;BME280;59568;52.128;5.434;2024-03-02T13:01:54;100137.91;;;12.89;100.00
71716;BME280;59568;52.128;5.434;2024-03-02T13:04:28;100146.38;;;12.95;100.00